Time;durP1;ratioP1;P1;durP2;ratioP2;P2;SDS_P1;SDS_P2;PMS_P1;PMS_P2;Temp;Humidity;BMP_temperature;BMP_pressure;BME280_temperature;BME280_humidity;BME280_pressure;Samples;Min_cycle;Max_cycle;Signal;HPM_P1;HPM_P2
2021/05/04 00:00:27;;;;;;;30.30;17.45;;;;;;;7.54;51.09;99207.41;263451;1099;115114;-65
2021/05/04 00:05:50;;;;;;;33.60;18.68;;;;;;;7.44;51.98;99214.95;263481;1103;114626;-66
2021/05/04 00:10:53;;;;;;;37.18;18.95;;;;;;;7.39;52.21;99208.14;263486;1099;115011;-65
2021/05/04 00:16:02;;;;;;;33.18;18.35;;;;;;;7.24;52.14;99202.63;263459;1104;114866;-66
2021/05/04 00:21:13;;;;;;;;;;;;;;;7.17;51.73;99197.66;263450;1098;115205;-67
2021/05/04 00:26:21;;;;;;;35.55;18.95;;;;;;;7.06;52.63;99198.16;263552;1102;101673;-65
2021/05/04 00:31:23;;;;;;;38.08;19.48;;;;;;;7.00;53.29;99194.02;263430;1098;114619;-67
2021/05/04 00:36:33;;;;;;;37.45;19.45;;;;;;;6.90;53.36;99194.50;263530;1104;114923;-65
2021/05/04 00:41:36;;;;;;;32.83;18.48;;;;;;;6.81;52.98;99195.76;263487;1098;114904;-66
2021/05/04 00:46:41;;;;;;;35.45;19.03;;;;;;;6.73;53.49;99188.17;263508;1104;114451;-67
2021/05/04 00:51:46;;;;;;;33.33;18.85;;;;;;;6.67;53.54;99183.14;263515;1097;114784;-67
2021/05/04 00:56:48;;;;;;;33.95;19.08;;;;;;;6.59;54.18;99179.98;263525;1104;115160;-65
2021/05/04 01:01:55;;;;;;;38.25;19.10;;;;;;;6.52;54.36;99173.22;263536;1099;114602;-68
2021/05/04 01:07:02;;;;;;;37.80;19.23;;;;;;;6.43;53.94;99186.86;263516;1103;114476;-67
2021/05/04 01:12:05;;;;;;;34.63;18.98;;;;;;;6.32;54.22;99174.95;263455;1098;114749;-66
2021/05/04 01:17:10;;;;;;;34.08;18.88;;;;;;;6.25;55.24;99178.78;263515;1103;114716;-68
2021/05/04 01:22:17;;;;;;;31.93;19.13;;;;;;;6.19;55.20;99164.97;263508;1099;115113;-66
2021/05/04 01:27:20;;;;;;;35.05;19.23;;;;;;;6.14;54.74;99170.43;263463;1104;114881;-66
2021/05/04 01:32:26;;;;;;;30.80;18.78;;;;;;;6.10;55.79;99168.84;263470;1097;114783;-66
2021/05/04 01:37:29;;;;;;;33.07;19.80;;;;;;;6.05;55.17;99163.77;263544;1103;114955;-69
2021/05/04 01:42:32;;;;;;;32.48;19.28;;;;;;;5.99;55.86;99161.37;263433;1099;115161;-67
2021/05/04 01:47:38;;;;;;;32.25;18.78;;;;;;;5.93;55.71;99161.62;263489;1103;114691;-67
2021/05/04 01:52:46;;;;;;;33.43;18.50;;;;;;;5.89;56.27;99152.08;263384;1098;114699;-66
2021/05/04 01:57:48;;;;;;;34.40;19.03;;;;;;;5.84;56.39;99146.99;263427;1103;114623;-64
2021/05/04 02:02:51;;;;;;;30.43;18.20;;;;;;;5.80;56.22;99137.45;263519;1098;115201;-68
2021/05/04 02:07:59;;;;;;;33.25;18.30;;;;;;;5.75;56.36;99134.16;263465;1104;115223;-68
2021/05/04 02:13:15;;;;;;;30.00;17.38;;;;;;;5.71;56.49;99129.93;263421;1096;114825;-67
2021/05/04 02:18:24;;;;;;;30.17;17.90;;;;;;;5.65;56.50;99125.75;263428;1099;114489;-67
2021/05/04 02:23:50;;;;;;;33.88;17.95;;;;;;;5.64;56.83;99125.83;263530;1098;115093;-69
2021/05/04 02:28:53;;;;;;;31.55;17.23;;;;;;;5.58;56.53;99126.92;263518;1104;114531;-66
2021/05/04 02:33:56;;;;;;;28.60;16.73;;;;;;;5.55;56.95;99129.68;263472;1097;115066;-66
2021/05/04 02:39:02;;;;;;;;;;;;;;;5.61;56.95;99128.59;263430;1103;114858;-65
2021/05/04 02:44:06;;;;;;;26.03;15.53;;;;;;;5.58;57.07;99121.64;263613;1098;100822;-67
2021/05/04 02:49:08;;;;;;;28.30;16.70;;;;;;;5.58;57.16;99121.64;263475;1103;115098;-67
2021/05/04 02:54:24;;;;;;;30.50;16.75;;;;;;;5.58;57.54;99126.92;263459;1098;115038;-68
2021/05/04 03:00:00;;;;;;;29.28;16.55;;;;;;;5.54;57.48;99127.97;263505;1104;114417;-68
2021/05/04 03:05:04;;;;;;;30.50;17.20;;;;;;;5.50;57.35;99123.71;263452;1097;115510;-63
2021/05/04 03:10:07;;;;;;;31.75;17.53;;;;;;;5.44;57.51;99122.20;263498;1103;114735;-63
2021/05/04 03:15:11;;;;;;;37.88;19.55;;;;;;;5.36;57.75;99116.34;263465;1097;114548;-63
2021/05/04 03:20:14;;;;;;;36.78;19.23;;;;;;;5.29;57.68;99111.38;263506;1104;114472;-65
2021/05/04 03:25:16;;;;;;;35.20;20.15;;;;;;;5.22;57.42;99101.05;263475;1097;114781;-64
2021/05/04 03:30:19;;;;;;;34.98;20.33;;;;;;;5.16;57.29;99097.80;263443;1103;114528;-64
2021/05/04 03:35:22;;;;;;;32.53;19.65;;;;;;;5.12;57.85;99094.42;263488;1096;114580;-65
2021/05/04 03:40:38;;;;;;;;;;;;;;;;;;;;;
2021/05/04 03:45:41;;;;;;;32.75;20.70;;;;;;;4.99;58.01;99093.17;263515;1099;114493;-66
2021/05/04 03:51:07;;;;;;;34.60;19.30;;;;;;;5.02;58.00;99086.93;263516;1103;114604;-64
2021/05/04 03:56:13;;;;;;;37.40;20.55;;;;;;;5.09;58.87;99081.35;263476;1096;115163;-65
2021/05/04 04:01:18;;;;;;;41.23;22.25;;;;;;;5.16;58.56;99074.95;263568;1103;114495;-65
2021/05/04 04:06:21;;;;;;;39.03;21.38;;;;;;;5.30;58.66;99084.06;263504;1097;114825;-65
2021/05/04 04:11:32;;;;;;;36.10;20.60;;;;;;;5.46;58.83;99080.75;263470;1104;114915;-65
2021/05/04 04:16:36;;;;;;;36.48;20.55;;;;;;;5.59;59.13;99080.26;263491;1099;114601;-65
2021/05/04 04:21:41;;;;;;;42.90;21.40;;;;;;;5.67;58.97;99078.15;263471;1104;115421;-67
2021/05/04 04:26:58;;;;;;;40.88;21.33;;;;;;;5.76;58.31;99074.28;263456;1098;114761;-67
2021/05/04 04:32:04;;;;;;;35.90;20.95;;;;;;;5.82;58.30;99066.96;263422;1102;114847;-67
2021/05/04 04:37:36;;;;;;;32.20;19.90;;;;;;;5.90;58.81;99059.55;263433;1099;114571;-67
2021/05/04 04:42:55;;;;;;;34.93;18.75;;;;;;;6.02;59.16;99057.38;263519;1104;114736;-67
2021/05/04 04:48:24;;;;;;;33.90;20.18;;;;;;;6.14;58.65;99067.38;263366;1098;114717;-67
2021/05/04 04:54:10;;;;;;;;;;;;;;;;;;;;;
2021/05/04 04:59:50;;;;;;;32.93;17.48;;;;;;;6.41;58.91;99070.59;263548;1097;114548;-66
2021/05/04 05:05:21;;;;;;;32.95;17.88;;;;;;;6.57;59.47;99068.13;263441;1099;114874;-66
2021/05/04 05:10:35;;;;;;;28.58;16.05;;;;;;;6.75;58.79;99055.85;263432;1103;117756;-66
2021/05/04 05:15:41;;;;;;;26.38;14.90;;;;;;;6.97;59.22;99061.02;263309;1099;114660;-68
2021/05/04 05:21:11;;;;;;;30.20;15.00;;;;;;;7.22;59.47;99047.47;263438;1098;114789;-68
2021/05/04 05:26:28;;;;;;;22.48;11.30;;;;;;;7.52;59.10;99045.11;263469;1099;114709;-68
2021/05/04 05:31:50;;;;;;;20.73;12.85;;;;;;;7.75;58.27;99042.18;263497;1098;114624;-69
2021/05/04 05:37:29;;;;;;;24.33;12.68;;;;;;;8.00;57.72;99032.97;263130;1100;114747;-67
2021/05/04 05:43:13;;;;;;;13.93;7.20;;;;;;;8.28;57.11;99041.19;262344;1105;115701;-69
2021/05/04 05:48:53;;;;;;;16.00;6.08;;;;;;;8.59;56.55;99025.47;262934;1100;114726;-69
2021/05/04 05:54:26;;;;;;;15.78;6.45;;;;;;;8.81;56.00;99010.10;263434;1102;114682;-68
2021/05/04 06:00:21;;;;;;;17.03;6.05;;;;;;;9.03;55.51;99000.94;263498;1099;114170;-67
2021/05/04 06:05:42;;;;;;;;;;;;;;;;;;;;;
2021/05/04 06:11:30;;;;;;;12.45;5.55;;;;;;;9.37;54.31;98978.62;262742;1098;115420;-70
2021/05/04 06:17:03;;;;;;;15.98;6.08;;;;;;;9.56;53.93;98962.47;262502;1102;114421;-70
2021/05/04 06:22:46;;;;;;;10.10;4.20;;;;;;;9.76;53.57;98959.48;260723;1104;115044;-68
2021/05/04 06:28:11;;;;;;;10.08;5.35;;;;;;;9.95;53.56;98944.14;262289;1102;114722;-69
2021/05/04 06:33:22;;;;;;;9.50;4.77;;;;;;;10.17;53.10;98933.02;263165;1104;114929;-69
2021/05/04 06:38:35;;;;;;;9.85;4.83;;;;;;;10.37;52.94;98922.98;262962;1099;114882;-69
2021/05/04 06:44:09;;;;;;;;;;;;;;;;;;;;;
2021/05/04 06:49:44;;;;;;;5.43;3.17;;;;;;;10.83;52.37;98899.58;263474;1099;114607;-73
2021/05/04 06:55:13;;;;;;;9.05;2.98;;;;;;;11.02;51.17;98883.26;262909;1103;115084;-73
2021/05/04 07:01:04;;;;;;;;;;;;;;;11.28;51.32;98867.36;262546;1100;115118;-71
2021/05/04 07:06:23;;;;;;;4.95;1.95;;;;;;;11.45;50.30;98869.72;263548;1101;101344;-72
2021/05/04 07:11:41;;;;;;;5.33;2.50;;;;;;;11.54;49.40;98858.41;263496;1097;114869;-69
2021/05/04 07:17:26;;;;;;;6.35;2.25;;;;;;;11.65;48.94;98856.81;263196;1104;115503;-67
2021/05/04 07:22:43;;;;;;;5.15;2.30;;;;;;;11.75;48.35;98847.22;263414;1098;114491;-70
2021/05/04 07:28:08;;;;;;;8.23;1.88;;;;;;;11.85;48.21;98837.64;263290;1103;114497;-70
2021/05/04 07:34:00;;;;;;;6.88;2.48;;;;;;;11.94;47.28;98826.34;263227;1103;114603;-67
2021/05/04 07:39:07;;;;;;;6.40;2.25;;;;;;;12.06;47.91;98808.63;263474;1103;114811;-67
2021/05/04 07:44:26;;;;;;;;;;;;;;;;;;;;;
2021/05/04 07:49:45;;;;;;;7.33;2.50;;;;;;;12.33;47.16;98791.55;263452;1099;115536;-66
2021/05/04 07:55:01;;;;;;;8.43;2.40;;;;;;;12.45;46.88;98770.16;263396;1101;114601;-67
2021/05/04 08:00:22;;;;;;;6.10;2.50;;;;;;;12.59;46.60;98769.13;263414;1099;115092;-67
2021/05/04 08:05:43;;;;;;;4.03;2.38;;;;;;;12.70;46.51;98766.53;263396;1104;114928;-64
2021/05/04 08:11:23;;;;;;;7.08;2.48;;;;;;;12.78;46.10;98750.77;263260;1098;115482;-69
2021/05/04 08:16:45;;;;;;;3.93;2.28;;;;;;;13.00;46.05;98744.63;263270;1099;114710;-69
2021/05/04 08:22:34;;;;;;;5.38;2.05;;;;;;;13.10;45.95;98741.27;262777;1102;115148;-68
2021/05/04 08:27:50;;;;;;;3.25;2.05;;;;;;;13.16;45.36;98732.78;263107;1102;115028;-68
2021/05/04 08:33:09;;;;;;;3.70;2.15;;;;;;;13.29;45.17;98728.22;262269;1102;115244;-68
2021/05/04 08:38:32;;;;;;;4.63;2.37;;;;;;;13.47;45.08;98720.56;262432;1105;115227;-67
2021/05/04 08:43:56;;;;;;;5.15;2.20;;;;;;;13.61;45.35;98704.27;262548;1100;114916;-68
2021/05/04 08:49:58;;;;;;;4.30;2.28;;;;;;;13.77;44.71;98693.20;262406;1102;115461;-69
2021/05/04 08:56:12;;;;;;;;;;;;;;;;;;;;;
2021/05/04 09:01:54;;;;;;;2.65;1.98;;;;;;;14.08;45.06;98680.00;262120;1101;114944;-70
2021/05/04 09:07:40;;;;;;;3.65;2.10;;;;;;;14.26;44.67;98662.41;262563;1100;115003;-68
2021/05/04 09:13:26;;;;;;;2.85;2.15;;;;;;;14.47;44.55;98653.56;263112;1100;114722;-69
2021/05/04 09:24:35;;;;;;;3.63;1.68;;;;;;;14.82;43.64;98639.90;263425;1099;114422;-68
2021/05/04 09:29:45;;;;;;;4.95;1.88;;;;;;;15.01;43.56;98617.70;263461;1100;114829;-68
2021/05/04 09:35:06;;;;;;;2.58;1.70;;;;;;;15.19;43.08;98604.55;263428;1099;114463;-69
2021/05/04 09:40:29;;;;;;;5.10;1.90;;;;;;;15.38;42.77;98616.16;263476;1098;115013;-68
2021/05/04 09:45:52;;;;;;;3.60;1.55;;;;;;;15.43;41.91;98598.84;263457;1098;114782;-69
2021/05/04 09:51:17;;;;;;;3.83;1.80;;;;;;;15.47;42.06;98579.66;263331;1098;115026;-69
2021/05/04 09:57:40;;;;;;;;;;;;;;;;;;;;;
2021/05/04 10:03:00;;;;;;;;;;;;;;;;;;;;;
2021/05/04 10:08:04;;;;;;;3.33;1.90;;;;;;;15.72;40.99;98540.75;262463;1102;114960;-68
2021/05/04 10:13:35;;;;;;;5.43;2.15;;;;;;;15.82;41.22;98538.08;262194;1102;114166;-68
2021/05/04 10:18:45;;;;;;;3.85;1.80;;;;;;;15.90;40.96;98527.51;262504;1106;114449;-68
2021/05/04 10:24:17;;;;;;;5.80;1.90;;;;;;;16.02;40.95;98514.77;263408;1097;115143;-68
2021/05/04 10:29:53;;;;;;;5.30;2.00;;;;;;;16.25;40.88;98497.37;263458;1099;114582;-68
2021/05/04 10:35:32;;;;;;;2.53;1.43;;;;;;;16.55;40.90;98492.77;263414;1100;114870;-68
2021/05/04 10:40:41;;;;;;;5.27;1.77;;;;;;;16.89;40.62;98473.44;263249;1104;114322;-67
2021/05/04 10:46:04;;;;;;;5.05;1.80;;;;;;;17.17;40.50;98460.82;263431;1100;114504;-67
2021/05/04 10:51:32;;;;;;;2.60;1.70;;;;;;;17.46;40.59;98444.49;263465;1104;114846;-68
2021/05/04 10:57:21;;;;;;;2.98;1.80;;;;;;;17.80;40.42;98431.20;263391;1098;114739;-67
2021/05/04 11:03:00;;;;;;;2.53;1.83;;;;;;;18.00;40.00;98415.67;263428;1104;114445;-67
2021/05/04 11:08:06;;;;;;;3.75;1.48;;;;;;;18.06;39.46;98415.05;263465;1100;115040;-68
2021/05/04 11:13:57;;;;;;;3.33;1.48;;;;;;;18.38;39.57;98400.12;263426;1103;115151;-67
2021/05/04 11:19:10;;;;;;;2.20;1.40;;;;;;;18.69;38.16;98395.03;263436;1098;115059;-68
2021/05/04 11:24:18;;;;;;;2.63;1.33;;;;;;;18.93;37.86;98371.89;263519;1103;114857;-67
2021/05/04 11:29:38;;;;;;;5.45;2.95;;;;;;;19.08;38.11;98368.37;263444;1104;114482;-69
2021/05/04 11:34:59;;;;;;;3.33;1.60;;;;;;;19.39;38.77;98356.94;263441;1100;115035;-68
2021/05/04 11:40:24;;;;;;;5.55;2.03;;;;;;;19.73;37.71;98353.25;263398;1103;114831;-67
2021/05/04 11:45:33;;;;;;;2.58;1.70;;;;;;;19.79;37.52;98339.91;263442;1094;114762;-69
2021/05/04 11:50:51;;;;;;;7.05;2.00;;;;;;;19.97;37.09;98341.57;263460;1104;114997;-69
2021/05/04 11:56:03;;;;;;;5.28;2.20;;;;;;;20.24;36.44;98343.02;263432;1098;116127;-71
2021/05/04 12:01:09;;;;;;;5.00;1.80;;;;;;;20.40;35.88;98321.34;263438;1099;114441;-70
2021/05/04 12:06:46;;;;;;;3.98;1.50;;;;;;;20.52;35.61;98309.17;263408;1098;115152;-70
2021/05/04 12:12:08;;;;;;;2.40;1.63;;;;;;;20.69;34.84;98303.69;263289;1099;115269;-70
2021/05/04 12:17:14;;;;;;;2.08;1.58;;;;;;;20.83;34.78;98289.39;263045;1099;115541;-68
2021/05/04 12:22:28;;;;;;;8.30;1.70;;;;;;;20.95;34.13;98281.70;263235;1104;114807;-67
2021/05/04 12:27:32;;;;;;;2.33;1.35;;;;;;;21.02;33.65;98266.42;263093;1099;114621;-68
2021/05/04 12:32:37;;;;;;;3.15;1.38;;;;;;;21.19;33.18;98256.31;262768;1104;115136;-68
2021/05/04 12:37:48;;;;;;;1.83;1.15;;;;;;;21.36;33.08;98240.80;263099;1098;114944;-69
2021/05/04 12:43:31;;;;;;;3.80;1.73;;;;;;;21.52;32.88;98259.61;263470;1099;114587;-72
2021/05/04 12:48:59;;;;;;;2.00;1.48;;;;;;;21.64;32.67;98243.77;263467;1099;115374;-69
2021/05/04 12:54:08;;;;;;;2.60;1.37;;;;;;;21.72;32.42;98230.13;263270;1102;115021;-70
2021/05/04 12:59:33;;;;;;;3.15;1.20;;;;;;;21.93;32.72;98219.38;262490;1100;115021;-69
2021/05/04 13:04:47;;;;;;;3.95;1.30;;;;;;;22.11;32.21;98213.59;262458;1101;114596;-70
2021/05/04 13:48:28;;;;;;;8.65;2.20;;;;;;;22.22;30.33;98168.08;263494;1099;114576;-67
2021/05/04 13:53:36;;;;;;;5.55;2.98;;;;;;;22.32;29.63;98179.45;263400;1104;115422;-68
2021/05/04 13:58:46;;;;;;;3.38;2.28;;;;;;;22.24;29.13;98169.55;263277;1098;114924;-68
2021/05/04 14:04:43;;;;;;;5.28;2.40;;;;;;;22.12;29.89;98154.80;263477;1104;115537;-68
2021/05/04 14:15:28;;;;;;;4.03;3.00;;;;;;;22.20;28.93;98160.13;263425;1098;114555;-68
2021/05/04 14:31:00;;;;;;;4.60;2.68;;;;;;;21.77;29.42;98173.51;263460;1099;114355;-69
2021/05/04 14:36:58;;;;;;;3.78;2.83;;;;;;;21.50;29.21;98161.47;263491;1102;115321;-70
2021/05/04 15:03:20;;;;;;;6.43;2.55;;;;;;;20.32;29.99;98118.71;262415;1102;115065;-70
2021/05/04 15:08:27;;;;;;;3.33;2.40;;;;;;;20.06;30.47;98119.88;262459;1102;114744;-70
2021/05/04 15:13:31;;;;;;;2.50;2.05;;;;;;;19.91;30.67;98104.63;262542;1100;114470;-68
2021/05/04 15:24:21;;;;;;;3.73;2.38;;;;;;;19.69;31.05;98087.34;263518;1098;114750;-67
2021/05/04 15:29:26;;;;;;;3.93;2.23;;;;;;;19.60;30.90;98081.97;263458;1099;114513;-69
2021/05/04 15:35:01;;;;;;;4.23;2.00;;;;;;;19.41;31.02;98062.66;262943;1100;118017;-70
2021/05/04 15:40:15;;;;;;;3.38;1.90;;;;;;;19.30;31.42;98067.42;263347;1099;114708;-69
2021/05/04 16:09:17;;;;;;;32.23;24.43;;;;;;;19.54;32.95;98022.45;263239;1104;114987;-70
2021/05/04 16:14:52;;;;;;;8.68;6.10;;;;;;;19.50;32.61;98013.03;262605;1099;115128;-70
2021/05/04 16:31:37;;;;;;;3.83;2.03;;;;;;;19.08;32.74;97998.03;263328;1104;114587;-68
2021/05/04 16:36:45;;;;;;;3.53;1.80;;;;;;;18.96;32.67;98008.38;263422;1104;114829;-72
2021/05/04 16:42:00;;;;;;;3.40;2.10;;;;;;;18.82;32.95;97993.76;263000;1100;115719;-68
2021/05/04 16:47:40;;;;;;;;;;;;;;;;;;;;;
2021/05/04 16:53:12;;;;;;;5.78;2.10;;;;;;;18.62;32.87;97985.19;262692;1100;114673;-71
2021/05/04 16:58:20;;;;;;;4.70;1.90;;;;;;;18.56;32.52;97979.64;262901;1103;114763;-70
2021/05/04 17:03:55;;;;;;;;;;;;;;;;;;;;;
2021/05/04 17:14:38;;;;;;;5.08;1.63;;;;;;;18.35;32.47;97962.16;262386;1101;114720;-67
2021/05/04 17:20:07;;;;;;;;;;;;;;;;;;;;;
2021/05/04 17:25:46;;;;;;;9.80;3.98;;;;;;;18.35;32.69;97953.25;263135;1099;115112;-70
2021/05/04 17:31:53;;;;;;;11.20;5.78;;;;;;;18.34;33.01;97956.94;263238;1100;114510;-69
2021/05/04 17:37:20;;;;;;;;;;;;;;;;;;;;;
2021/05/04 17:42:31;;;;;;;18.28;12.80;;;;;;;18.32;33.35;97950.89;263383;1104;114607;-71
2021/05/04 17:47:55;;;;;;;9.73;5.23;;;;;;;18.32;33.26;97948.20;263194;1099;115374;-70
2021/05/04 17:52:58;;;;;;;5.50;3.93;;;;;;;18.28;33.29;97952.25;263317;1104;114713;-70
2021/05/04 17:58:05;;;;;;;28.73;17.03;;;;;;;18.25;33.55;97949.90;263176;1098;115157;-73
2021/05/04 18:03:13;;;;;;;29.45;20.08;;;;;;;18.29;34.19;97937.77;263245;1104;115913;-68
2021/05/04 18:08:22;;;;;;;40.75;27.55;;;;;;;18.32;34.56;97943.65;263338;1099;115477;-68
2021/05/04 18:24:39;;;;;;;35.08;23.68;;;;;;;18.31;34.79;97946.53;263091;1099;115030;-69
2021/05/04 18:30:00;;;;;;;21.30;13.95;;;;;;;18.28;34.62;97950.40;262392;1102;116313;-71
2021/05/04 20:15:51;;;;;;;3.83;2.38;;;;;;;16.79;34.62;97919.91;263066;1100;114669;-68
2021/05/04 20:21:13;;;;;;;6.60;2.88;;;;;;;16.75;34.43;97916.72;263356;1098;114768;-70
2021/05/04 20:26:27;;;;;;;4.60;2.78;;;;;;;16.73;34.50;97913.30;262951;1103;114762;-70
2021/05/04 20:32:15;;;;;;;5.85;2.90;;;;;;;16.72;34.67;97903.56;263247;1098;114599;-68
2021/05/04 20:37:27;;;;;;;5.63;3.25;;;;;;;16.73;34.64;97909.78;263416;1104;114891;-68
2021/05/04 20:42:40;;;;;;;4.10;2.70;;;;;;;16.69;34.72;97908.42;263388;1099;114519;-68
2021/05/04 20:47:58;;;;;;;6.08;2.88;;;;;;;16.68;34.66;97904.06;263181;1100;114590;-69
2021/05/04 20:53:16;;;;;;;5.48;2.78;;;;;;;16.66;34.74;97898.00;263239;1099;114959;-67
2021/05/04 20:58:26;;;;;;;6.13;2.45;;;;;;;16.66;34.83;97909.58;263436;1100;114529;-68
2021/05/04 21:03:31;;;;;;;7.00;2.70;;;;;;;16.63;35.07;97909.90;263271;1098;114484;-68
2021/05/04 21:09:04;;;;;;;;;;;;;;;;;;;;;
2021/05/04 21:14:21;;;;;;;4.05;2.68;;;;;;;16.56;35.15;97906.18;263332;1099;114998;-69
2021/05/04 21:20:29;;;;;;;9.65;2.80;;;;;;;16.51;35.17;97905.83;263190;1100;114926;-69
2021/05/04 21:31:30;;;;;;;7.00;2.90;;;;;;;16.49;35.36;97913.20;263145;1098;115164;-68
2021/05/04 21:36:58;;;;;;;7.10;2.95;;;;;;;16.45;35.19;97907.30;263336;1104;115153;-67
2021/05/04 21:42:20;;;;;;;4.20;2.45;;;;;;;16.43;35.43;97909.30;263459;1098;115305;-68
2021/05/04 21:47:41;;;;;;;20.03;3.60;;;;;;;16.40;35.38;97904.24;263414;1104;115132;-68
2021/05/04 21:52:49;;;;;;;11.28;3.05;;;;;;;16.40;35.49;97911.46;263359;1098;114969;-67
2021/05/04 21:57:55;;;;;;;8.38;2.35;;;;;;;16.39;35.61;97905.25;263464;1104;114806;-67
2021/05/04 22:03:13;;;;;;;5.33;2.68;;;;;;;16.38;35.64;97900.89;263391;1098;114686;-68
2021/05/04 22:08:24;;;;;;;4.97;2.70;;;;;;;16.37;35.99;97895.66;263436;1104;114818;-67
2021/05/04 22:13:55;;;;;;;5.65;2.63;;;;;;;16.33;35.70;97903.20;263322;1099;115125;-67
2021/05/04 22:35:44;;;;;;;4.70;2.63;;;;;;;16.21;36.04;97905.33;263449;1100;114994;-68
2021/05/04 22:41:12;;;;;;;6.65;2.50;;;;;;;16.21;35.92;97899.13;263390;1104;114772;-67
2021/05/04 22:46:34;;;;;;;6.43;2.85;;;;;;;16.23;36.13;97897.10;263242;1100;114947;-66
2021/05/04 23:18:56;;;;;;;3.30;2.10;;;;;;;16.06;36.56;97872.00;261477;1089;118280;-64
2021/05/04 23:24:00;;;;;;;5.65;2.03;;;;;;;16.04;36.61;97866.81;261531;1104;115805;-64
2021/05/04 23:29:14;;;;;;;4.55;2.10;;;;;;;16.05;36.73;97864.97;261196;1104;114607;-64
2021/05/04 23:34:24;;;;;;;4.88;2.03;;;;;;;16.08;36.62;97859.28;261196;1100;115221;-64
2021/05/04 23:39:32;;;;;;;3.20;1.98;;;;;;;16.08;36.61;97852.06;262630;1088;114734;-63
2021/05/04 23:44:37;;;;;;;4.33;2.10;;;;;;;16.08;36.73;97851.23;263105;1099;114552;-65
2021/05/04 23:49:42;;;;;;;3.63;2.25;;;;;;;16.08;36.73;97851.23;262995;1104;114755;-65
2021/05/04 23:54:54;;;;;;;5.43;2.40;;;;;;;16.06;36.83;97843.31;263039;1099;114990;-65
